AirNav   Everest Fuels
 
 274 users online  

17OI Haas Airport
Bainbridge, Ohio, USA

GOING TO BAINBRIDGE?


FAA INFORMATION EFFECTIVE 10 OCTOBER 2019

Location

FAA Identifier: 17OI
Lat/Long: 39-13-36.2360N 083-19-03.6830W
39-13.603933N 083-19.061383W
39.2267322,-83.3176897
(estimated)
Elevation: 750 ft. / 229 m (estimated)
Variation: 04W (1985)
From city: 2 miles W of BAINBRIDGE, OH
Time zone: UTC -4 (UTC -5 during Standard Time)
Zip code: 45612

Airport Operations

Airport use: Private use. Permission required prior to landing
Activation date: 07/1963
Control tower: no
ARTCC: INDIANAPOLIS CENTER
FSS: DAYTON FLIGHT SERVICE STATION
Attendance: APR-NOV SAT-SUN DAYLIGHT HOURS, DEC-MAR/IREG/
Wind indicator: yes
Segmented circle: no
Lights: FOR LIRL RY 13/31 CALL 614-634-2955 OR WINTER MONTHS CALL 614-634-3068 OR 407-220-2790.

Airport Communications

WX AWOS-3 at HOC (11 nm W): 118.175 (937-393-9038)
WX AWOS-A at EOP (18 nm E): 118.4
WX AWOS-3 at RZT (19 nm NE): 119.225 (740-779-1364)

Nearby radio navigation aids

VOR radial/distance  VOR name  Freq  Var
XUBr226/(23.9)YELLOW BUD VOR112.5005W
MXQr122/25.5MIDWEST VOR/DME112.9004W
YRKr341/38.4YORK VORTAC112.8005W

 
NDB name  Hdg/Dist  Freq  Var  ID
WAVERLY287/18.338506WEOP . --- .--.
COURT HOUSE177/22.741406WCSS -.-. ... ...
WEST UNION031/25.135904WAMT .- -- -

Airport Services

Parking: tiedowns
Airframe service: MINOR
Powerplant service: MINOR

Runway Information

Runway 13/31

Dimensions: 1920 x 90 ft. / 585 x 27 m
Surface: turf, in good condition
Runway edge lights: non-standard
1710 FT OF RY UNUSBL AT NIGHT; RY 13 LGTD THLD RELOCATED 173 FT; RY 31 LGTD THLD RELOCATED 37 FT FOR NIGHT OPNS. NSTD LIRL; NOT FAA APPROVED L-800 SERIES.
RUNWAY 13  RUNWAY 31
Traffic pattern: leftleft
Obstructions: 23 ft. tree, 100 ft. right of centerline
+5'FENCE MKD WITH TIRES & 10'ROAD.
20 ft. road, 90 ft. right of centerline
+30'POLE 95'FM RWY END 60'R.

Airport Ownership and Management from official FAA records

Ownership: Privately-owned
Owner: VIRGINIA HAAS
1746 US HIGHWAY 50
BAINBRIDGE, OH 45612
Phone 614-634-2955
Manager: VIRGINIA HAAS
1746 US HIGHWAY 50
BAINBRIDGE, OH 45612
Phone 614-634-2955
AMGR WINTER PHONE 614-634-3068 OR 407-220-2790.

Airport Operational Statistics

Aircraft based on the field: 4
Single engine airplanes: 4
    
Aircraft operations: avg 20/month *
83% local general aviation
15% transient general aviation
2% military
* for 12-month period ending 14 December 1994

Additional Remarks

FOR CD CTC INDIANAPOLIS ARTCC AT 317-247-2411.

Instrument Procedures

There are no published instrument procedures at 17OI.

Some nearby airports with instrument procedures:

KHOC - Highland County Airport (11 nm W)
KEOP - Pike County Airport (18 nm E)
KRZT - Ross County Airport (19 nm NE)
I23 - Fayette County Airport (21 nm N)
KCYO - Pickaway County Memorial Airport (23 nm NE)
 
Loc | Ops | Rwys | IFR | FBO | Links
Com | Nav | Svcs | Stats | Notes
Area around 17OI (Haas Airport)
 
Road maps at: MapQuest Bing Google
 
Aerial photo
No photo
 
Sectional chart

 
Airport distance calculator
Flying to Haas Airport? Find the distance to fly.

From to 17OI

Sunrise and sunset
Times for 19-Oct-2019
 Local
(UTC-4)
 Zulu
(UTC)
Morning civil twilight07:2111:21
Sunrise07:4811:48
Sunset18:4822:48
Evening civil twilight19:1623:16

Current date and time
Zulu (UTC)  19-Oct-2019 08:44:21
Local (UTC-4)  19-Oct-2019 04:44:21
 
METAR
KRZT 
19nm NE 
190836Z AUTO 00000KT 1/2SM FG OVC001 00/00 A3001 RMK AO2
KI23 
21nm N 
190835Z AUTO 00000KT 10SM CLR M01/M01 A3000 RMK AO1
KILN 
26nm NW 
190754Z AUTO 12005KT 10SM CLR 04/01 A2999 RMK AO2 SLP164 T00390011
KPMH 
32nm SE 
190838Z AUTO 01003KT 10SM CLR 00/00 A3002 RMK AO2 T10011001
TAF
KILN 
26nm NW 
190523Z 1906/2006 11003KT P6SM SCT250 FM190900 00000KT 3SM BR SCT250 TEMPO 1910/1912 1SM BR FM191300 14003KT P6SM SCT250 FM191500 16007KT P6SM BKN250 FM200000 15004KT P6SM SCT250
NOTAMs
Click for the latest NOTAMs
NOTAMs are issued by the DoD/FAA and will open in a separate window not controlled by AirNav.

 

 
 

Would you like to see your business listed on this page?

 If your business provides an interesting product or service to pilots, flight crews, aircraft, or users of the Haas Airport, you should consider listing it here.  To start the listing process, click on the button below
 
Add a business
 

Other Pages about Haas Airport

Update a link
 
Copyright © AirNav, LLC. All rights reserved. Privacy Policy  Contact